Time;durP1;ratioP1;P1;durP2;ratioP2;P2;SDS_P1;SDS_P2;PMS_P1;PMS_P2;Temp;Humidity;BMP_temperature;BMP_pressure;BME280_temperature;BME280_humidity;BME280_pressure;Samples;Min_cycle;Max_cycle;Signal;HPM_P1;HPM_P2
2022/03/28 00:00:00;;;;;;;22.23;11.77;;;;;;;;;;5051635;28;20053;-65
2022/03/28 00:02:27;;;;;;;20.15;10.13;;;;;;;;;;5052077;28;20045;-65
2022/03/28 00:04:54;;;;;;;17.52;8.75;;;;;;;;;;5051986;28;20057;-66
2022/03/28 00:07:20;;;;;;;13.18;8.85;;;;;;;;;;5052154;28;20056;-66
2022/03/28 00:09:47;;;;;;;14.75;8.63;;;;;;;;;;5052110;28;20049;-66
2022/03/28 00:12:14;;;;;;;14.50;8.70;;;;;;;;;;5051708;28;20492;-66
2022/03/28 00:14:40;;;;;;;16.85;8.48;;;;;;;;;;5052187;28;20110;-66
2022/03/28 00:17:07;;;;;;;16.05;8.18;;;;;;;;;;5052323;28;20083;-66
2022/03/28 00:19:33;;;;;;;17.42;8.38;;;;;;;;;;5052048;28;20052;-66
2022/03/28 00:22:00;;;;;;;16.52;8.73;;;;;;;;;;5051553;28;20565;-66
2022/03/28 00:24:27;;;;;;;11.60;8.00;;;;;;;;;;5051813;28;20484;-66
2022/03/28 00:26:55;;;;;;;12.98;8.57;;;;;;;;;;5051642;28;20102;-66
2022/03/28 00:29:22;;;;;;;14.60;8.93;;;;;;;;;;5052060;28;20068;-66
2022/03/28 00:31:48;;;;;;;14.73;8.60;;;;;;;;;;5051468;28;20049;-66
2022/03/28 00:34:15;;;;;;;14.80;8.52;;;;;;;;;;5051807;28;20056;-66
2022/03/28 00:36:42;;;;;;;14.88;8.40;;;;;;;;;;5051706;28;20103;-66
2022/03/28 00:39:08;;;;;;;13.30;8.57;;;;;;;;;;5051766;28;20049;-66
2022/03/28 00:41:35;;;;;;;15.23;8.65;;;;;;;;;;5051353;28;20102;-65
2022/03/28 00:44:02;;;;;;;15.77;8.15;;;;;;;;;;5051739;28;20041;-66
2022/03/28 00:46:28;;;;;;;16.20;9.13;;;;;;;;;;5051837;28;20118;-66
2022/03/28 00:48:55;;;;;;;15.85;8.82;;;;;;;;;;5051772;28;20064;-66
2022/03/28 00:51:22;;;;;;;13.10;9.13;;;;;;;;;;5051398;28;20098;-66
2022/03/28 00:53:50;;;;;;;16.90;8.85;;;;;;;;;;5051354;28;20049;-66
2022/03/28 00:56:17;;;;;;;15.13;8.18;;;;;;;;;;5050498;28;20431;-66
2022/03/28 00:58:44;;;;;;;16.30;9.45;;;;;;;;;;5051596;28;20355;-66
2022/03/28 01:01:11;;;;;;;16.95;8.95;;;;;;;;;;5051433;28;20119;-65
2022/03/28 01:07:06;;;;;;;15.57;9.05;;;;;;;;;;5051537;28;20049;-66
2022/03/28 01:09:34;;;;;;;14.23;9.10;;;;;;;;;;5033906;28;20056;-65
2022/03/28 01:12:00;;;;;;;13.43;8.38;;;;;;;;;;5053158;28;20049;-65
2022/03/28 01:14:27;;;;;;;14.20;8.27;;;;;;;;;;5054085;28;20108;-66
2022/03/28 01:19:39;;;;;;;15.68;8.13;;;;;;;;;;5055452;28;20053;-65
2022/03/28 01:22:06;;;;;;;16.02;7.95;;;;;;;;;;5055360;28;20045;-66
2022/03/28 01:24:33;;;;;;;15.05;8.20;;;;;;;;;;5055335;28;20428;-66
2022/03/28 01:27:00;;;;;;;15.27;8.38;;;;;;;;;;5053991;28;20103;-65
2022/03/28 01:29:27;;;;;;;15.60;8.18;;;;;;;;;;5037352;28;20049;-65
2022/03/28 01:31:55;;;;;;;15.80;8.25;;;;;;;;;;5054997;28;20055;-65
2022/03/28 01:34:21;;;;;;;15.63;8.40;;;;;;;;;;5055159;28;20057;-66
2022/03/28 01:36:48;;;;;;;13.20;8.15;;;;;;;;;;5054970;28;20072;-66
2022/03/28 01:39:15;;;;;;;15.63;8.20;;;;;;;;;;5054974;28;20522;-65
2022/03/28 01:41:43;;;;;;;14.75;8.00;;;;;;;;;;5054519;28;20049;-65
2022/03/28 01:44:09;;;;;;;17.92;9.15;;;;;;;;;;5054562;28;20041;-65
2022/03/28 01:46:40;;;;;;;14.00;8.82;;;;;;;;;;5054673;28;20557;-65
2022/03/28 01:49:07;;;;;;;14.90;8.60;;;;;;;;;;5054797;28;20057;-65
2022/03/28 01:51:34;;;;;;;16.25;8.27;;;;;;;;;;5054543;28;20258;-65
2022/03/28 01:54:00;;;;;;;13.10;8.18;;;;;;;;;;5054428;28;20419;-65
2022/03/28 01:56:28;;;;;;;15.63;7.97;;;;;;;;;;5054416;28;20079;-65
2022/03/28 01:58:54;;;;;;;15.85;8.93;;;;;;;;;;5054630;28;20049;-65
2022/03/28 02:01:21;;;;;;;17.40;8.50;;;;;;;;;;5054616;28;20045;-65
2022/03/28 02:03:48;;;;;;;14.07;9.13;;;;;;;;;;5054020;28;20079;-65
2022/03/28 02:06:14;;;;;;;14.77;8.65;;;;;;;;;;5054579;28;20087;-65
2022/03/28 02:08:41;;;;;;;11.50;7.82;;;;;;;;;;5054311;28;20053;-65
2022/03/28 02:11:08;;;;;;;16.77;8.30;;;;;;;;;;5054075;28;20049;-65
2022/03/28 02:13:35;;;;;;;13.18;9.13;;;;;;;;;;5054337;28;20053;-65
2022/03/28 02:16:02;;;;;;;14.30;8.80;;;;;;;;;;5054639;28;20045;-65
2022/03/28 02:18:28;;;;;;;17.65;8.23;;;;;;;;;;5054071;28;20554;-65
2022/03/28 02:20:55;;;;;;;14.15;9.20;;;;;;;;;;5053934;28;20048;-66
2022/03/28 02:23:22;;;;;;;17.63;9.10;;;;;;;;;;5053174;28;20114;-65
2022/03/28 02:25:49;;;;;;;16.40;9.40;;;;;;;;;;5053908;28;20079;-65
2022/03/28 02:28:15;;;;;;;13.55;8.48;;;;;;;;;;5053867;28;20049;-65
2022/03/28 02:30:45;;;;;;;14.90;8.93;;;;;;;;;;5053983;28;20114;-65
2022/03/28 02:33:11;;;;;;;19.52;9.32;;;;;;;;;;5054049;28;20136;-66
2022/03/28 02:35:38;;;;;;;18.33;9.25;;;;;;;;;;5053819;28;20053;-66
2022/03/28 02:38:05;;;;;;;15.50;9.25;;;;;;;;;;5053632;28;20053;-66
2022/03/28 02:40:32;;;;;;;15.77;10.00;;;;;;;;;;5054009;28;20049;-66
2022/03/28 02:42:59;;;;;;;16.60;10.07;;;;;;;;;;5053446;28;20170;-66
2022/03/28 02:45:34;;;;;;;16.35;8.93;;;;;;;;;;5052709;28;20049;-66
2022/03/28 02:48:02;;;;;;;17.20;9.25;;;;;;;;;;5053628;28;20111;-65
2022/03/28 02:50:31;;;;;;;13.82;8.20;;;;;;;;;;5053624;28;20120;-65
2022/03/28 02:52:57;;;;;;;15.88;8.55;;;;;;;;;;5052214;28;20110;-65
2022/03/28 02:55:24;;;;;;;14.05;8.50;;;;;;;;;;5053870;28;20110;-65
2022/03/28 02:57:52;;;;;;;14.95;9.27;;;;;;;;;;5053504;28;20052;-65
2022/03/28 03:00:18;;;;;;;16.58;9.00;;;;;;;;;;5053736;28;20128;-66
2022/03/28 03:02:45;;;;;;;13.70;8.52;;;;;;;;;;5053020;28;20049;-65
2022/03/28 03:05:12;;;;;;;15.45;8.35;;;;;;;;;;5053169;28;20486;-65
2022/03/28 03:07:39;;;;;;;17.23;8.70;;;;;;;;;;5052164;28;20107;-65
2022/03/28 03:10:06;;;;;;;14.98;8.43;;;;;;;;;;5053346;28;20045;-65
2022/03/28 03:12:33;;;;;;;15.68;9.15;;;;;;;;;;5053010;28;20106;-66
2022/03/28 03:15:00;;;;;;;15.38;9.35;;;;;;;;;;5053550;28;20123;-66
2022/03/28 03:17:26;;;;;;;17.90;9.98;;;;;;;;;;5053178;28;20056;-65
2022/03/28 03:19:53;;;;;;;18.52;9.82;;;;;;;;;;5052826;28;20092;-65
2022/03/28 03:22:19;;;;;;;22.00;10.85;;;;;;;;;;5051806;28;20107;-66
2022/03/28 03:24:46;;;;;;;18.75;9.65;;;;;;;;;;5052786;28;20049;-65
2022/03/28 03:27:13;;;;;;;17.65;9.45;;;;;;;;;;5053355;28;20049;-65
2022/03/28 03:29:40;;;;;;;17.73;10.52;;;;;;;;;;5052860;28;20053;-65
2022/03/28 03:32:07;;;;;;;19.38;10.32;;;;;;;;;;5052647;28;20106;-65
2022/03/28 03:34:34;;;;;;;15.20;9.13;;;;;;;;;;5052418;28;20102;-65
2022/03/28 03:37:01;;;;;;;17.38;9.55;;;;;;;;;;5052833;28;20045;-65
2022/03/28 03:39:28;;;;;;;16.75;9.68;;;;;;;;;;5052822;28;20103;-66
2022/03/28 03:41:55;;;;;;;14.77;9.65;;;;;;;;;;5052446;28;20087;-65
2022/03/28 03:44:22;;;;;;;13.50;9.15;;;;;;;;;;5052484;28;20048;-65
2022/03/28 03:46:48;;;;;;;13.32;8.43;;;;;;;;;;5052498;28;20103;-66
2022/03/28 03:49:18;;;;;;;13.57;9.05;;;;;;;;;;5052283;28;20076;-65
2022/03/28 03:51:45;;;;;;;17.67;9.32;;;;;;;;;;5052910;28;20099;-66
2022/03/28 03:54:12;;;;;;;16.52;10.38;;;;;;;;;;5052934;28;20052;-65
2022/03/28 03:56:39;;;;;;;14.10;9.50;;;;;;;;;;5052452;28;20110;-65
2022/03/28 03:59:05;;;;;;;15.98;8.93;;;;;;;;;;5052326;28;20106;-65
2022/03/28 04:01:32;;;;;;;17.17;9.57;;;;;;;;;;5050823;28;20052;-65
2022/03/28 04:03:59;;;;;;;16.27;8.73;;;;;;;;;;5075215;22;20049;-63
2022/03/28 04:06:25;;;;;;;19.05;9.35;;;;;;;;;;5052299;28;20079;-63
2022/03/28 04:08:52;;;;;;;14.00;8.38;;;;;;;;;;5052184;28;20053;-63
2022/03/28 04:11:18;;;;;;;19.27;8.80;;;;;;;;;;5051958;28;20075;-63
2022/03/28 04:13:45;;;;;;;16.48;9.77;;;;;;;;;;5051971;28;20415;-63
2022/03/28 04:16:12;;;;;;;20.73;9.43;;;;;;;;;;5052012;28;20423;-63
2022/03/28 04:18:38;;;;;;;14.43;8.68;;;;;;;;;;5052235;28;20059;-63
2022/03/28 04:21:05;;;;;;;15.95;9.13;;;;;;;;;;5051759;28;20103;-63
2022/03/28 04:23:32;;;;;;;15.43;9.63;;;;;;;;;;5051706;28;20045;-63
2022/03/28 04:25:58;;;;;;;16.73;9.38;;;;;;;;;;5051905;28;20103;-63
2022/03/28 04:28:25;;;;;;;16.85;9.48;;;;;;;;;;5051774;28;20049;-63
2022/03/28 04:30:51;;;;;;;15.85;9.13;;;;;;;;;;5050600;28;20103;-63
2022/03/28 04:33:19;;;;;;;20.85;9.70;;;;;;;;;;5051622;28;20049;-63
2022/03/28 04:35:46;;;;;;;15.60;8.65;;;;;;;;;;5051375;28;20053;-63
2022/03/28 04:38:12;;;;;;;16.17;8.80;;;;;;;;;;5051893;28;20049;-63
2022/03/28 04:40:39;;;;;;;16.92;8.55;;;;;;;;;;5050372;28;20057;-62
2022/03/28 04:43:06;;;;;;;17.05;8.35;;;;;;;;;;5051450;28;20052;-63
2022/03/28 04:45:32;;;;;;;16.83;8.73;;;;;;;;;;5050228;28;20049;-63
2022/03/28 04:48:00;;;;;;;17.48;9.07;;;;;;;;;;5050547;28;20056;-63
2022/03/28 04:50:27;;;;;;;16.00;9.45;;;;;;;;;;5051582;28;20049;-63
2022/03/28 04:52:54;;;;;;;16.23;8.77;;;;;;;;;;5050283;28;20052;-63
2022/03/28 04:55:21;;;;;;;13.90;8.57;;;;;;;;;;5051631;28;20083;-63
2022/03/28 04:57:47;;;;;;;15.45;9.23;;;;;;;;;;5051418;28;20049;-63
2022/03/28 05:00:14;;;;;;;18.60;9.65;;;;;;;;;;5051757;28;20045;-63
2022/03/28 05:02:41;;;;;;;20.17;9.95;;;;;;;;;;5050357;28;20470;-63
2022/03/28 05:05:08;;;;;;;20.38;9.82;;;;;;;;;;5033442;28;20049;-63
2022/03/28 05:07:38;;;;;;;17.40;8.38;;;;;;;;;;5051580;28;20091;-62
2022/03/28 05:10:05;;;;;;;18.48;8.98;;;;;;;;;;5050135;28;20103;-63
2022/03/28 05:12:33;;;;;;;18.00;8.85;;;;;;;;;;5051216;28;20061;-63
2022/03/28 05:14:59;;;;;;;17.83;8.80;;;;;;;;;;5050376;28;20048;-63
2022/03/28 05:17:28;;;;;;;19.75;9.98;;;;;;;;;;5051533;28;20098;-63
2022/03/28 05:19:55;;;;;;;22.45;9.75;;;;;;;;;;5051568;28;20198;-63
2022/03/28 05:22:22;;;;;;;17.58;9.18;;;;;;;;;;5051382;28;20045;-63
2022/03/28 05:24:50;;;;;;;19.75;9.45;;;;;;;;;;5051227;28;20045;-63
2022/03/28 05:27:17;;;;;;;19.67;9.93;;;;;;;;;;5051346;28;20566;-63
2022/03/28 05:29:44;;;;;;;18.90;10.23;;;;;;;;;;5051314;28;20049;-63
2022/03/28 05:32:11;;;;;;;16.92;9.90;;;;;;;;;;5050012;28;20049;-63
2022/03/28 05:34:37;;;;;;;26.23;11.13;;;;;;;;;;5049405;28;20079;-63
2022/03/28 05:37:06;;;;;;;21.02;12.40;;;;;;;;;;5051443;28;20052;-63
2022/03/28 05:39:33;;;;;;;22.48;12.07;;;;;;;;;;5049942;28;20049;-63
2022/03/28 05:42:00;;;;;;;18.08;10.35;;;;;;;;;;5051184;28;20048;-63
2022/03/28 05:44:27;;;;;;;18.02;10.52;;;;;;;;;;5049632;28;20495;-63
2022/03/28 05:46:54;;;;;;;22.40;10.43;;;;;;;;;;5049958;28;20491;-63
2022/03/28 05:49:22;;;;;;;18.92;10.43;;;;;;;;;;5050992;28;20049;-63
2022/03/28 05:51:49;;;;;;;17.45;9.23;;;;;;;;;;5049632;28;20049;-63
2022/03/28 05:54:16;;;;;;;24.90;9.75;;;;;;;;;;5050887;28;20102;-63
2022/03/28 05:56:43;;;;;;;20.23;9.15;;;;;;;;;;5051074;28;20045;-63
2022/03/28 05:59:11;;;;;;;17.52;9.77;;;;;;;;;;5054090;28;20052;-63
2022/03/28 06:01:38;;;;;;;21.77;9.02;;;;;;;;;;5054484;28;20048;-63
2022/03/28 06:04:04;;;;;;;22.27;9.55;;;;;;;;;;5052970;28;20140;-63
2022/03/28 06:06:32;;;;;;;21.38;10.60;;;;;;;;;;5054282;28;20053;-63
2022/03/28 06:09:00;;;;;;;21.80;9.90;;;;;;;;;;5054369;28;20493;-63
2022/03/28 06:11:26;;;;;;;21.85;9.93;;;;;;;;;;5054163;28;20053;-61
2022/03/28 06:13:59;;;;;;;19.95;10.32;;;;;;;;;;5054260;28;20049;-63
2022/03/28 06:16:25;;;;;;;18.40;10.60;;;;;;;;;;5054188;28;20103;-63
2022/03/28 06:18:52;;;;;;;18.92;10.52;;;;;;;;;;5054226;28;20426;-62
2022/03/28 06:21:19;;;;;;;20.35;9.73;;;;;;;;;;5053064;28;20049;-63
2022/03/28 06:23:49;;;;;;;20.92;10.13;;;;;;;;;;5054161;28;20049;-63
2022/03/28 06:26:17;;;;;;;20.30;10.45;;;;;;;;;;5036284;28;20045;-63
2022/03/28 06:28:46;;;;;;;19.42;10.40;;;;;;;;;;5054130;28;20055;-63
2022/03/28 06:31:13;;;;;;;26.30;11.05;;;;;;;;;;5053899;28;20056;-63
2022/03/28 06:33:41;;;;;;;20.15;11.15;;;;;;;;;;5053210;28;20136;-63
2022/03/28 06:36:08;;;;;;;19.85;9.25;;;;;;;;;;5054164;28;20049;-63
2022/03/28 06:38:34;;;;;;;24.05;10.00;;;;;;;;;;5053987;28;20044;-63
2022/03/28 06:41:01;;;;;;;20.45;10.40;;;;;;;;;;5052619;28;20098;-63
2022/03/28 06:43:28;;;;;;;26.60;11.15;;;;;;;;;;5053716;28;20107;-63
2022/03/28 06:45:54;;;;;;;17.58;10.07;;;;;;;;;;5052497;28;20053;-63
2022/03/28 06:48:21;;;;;;;20.45;9.98;;;;;;;;;;5053671;28;20671;-63
2022/03/28 06:51:03;;;;;;;21.73;11.43;;;;;;;;;;5053432;28;20049;-63
2022/03/28 06:53:30;;;;;;;21.13;11.27;;;;;;;;;;5053768;28;20053;-63
2022/03/28 06:55:56;;;;;;;20.73;10.20;;;;;;;;;;5053297;28;20499;-63
2022/03/28 06:58:24;;;;;;;19.75;10.52;;;;;;;;;;5052311;28;20496;-63
2022/03/28 07:00:51;;;;;;;18.45;10.10;;;;;;;;;;5053242;28;20988;-63
2022/03/28 07:03:17;;;;;;;18.92;9.73;;;;;;;;;;5053387;28;20045;-63
2022/03/28 07:05:44;;;;;;;19.80;10.02;;;;;;;;;;5053504;28;20055;-63
2022/03/28 07:08:12;;;;;;;16.40;9.82;;;;;;;;;;5052956;28;20107;-63
2022/03/28 07:10:39;;;;;;;22.13;10.15;;;;;;;;;;5051982;28;20099;-63
2022/03/28 07:13:06;;;;;;;17.85;9.60;;;;;;;;;;5053291;28;20466;-63
2022/03/28 07:15:32;;;;;;;20.50;10.63;;;;;;;;;;5053353;28;20053;-63
2022/03/28 07:18:07;;;;;;;17.85;10.55;;;;;;;;;;5053068;28;20044;-63
2022/03/28 07:20:35;;;;;;;21.13;9.90;;;;;;;;;;5053198;28;20420;-63
2022/03/28 07:23:03;;;;;;;17.77;9.60;;;;;;;;;;5053175;28;20053;-63
2022/03/28 07:25:29;;;;;;;18.90;10.00;;;;;;;;;;5052552;28;20083;-63
2022/03/28 07:27:56;;;;;;;21.20;10.88;;;;;;;;;;5051928;28;20396;-63
2022/03/28 07:30:23;;;;;;;19.60;11.07;;;;;;;;;;5053013;28;20495;-63
2022/03/28 07:32:51;;;;;;;16.48;9.95;;;;;;;;;;5051581;28;20077;-63
2022/03/28 07:35:21;;;;;;;20.90;10.25;;;;;;;;;;5051988;28;20041;-63
2022/03/28 07:37:48;;;;;;;21.40;10.10;;;;;;;;;;5052916;28;20055;-63
2022/03/28 07:40:15;;;;;;;19.52;11.63;;;;;;;;;;5052514;28;20564;-63
2022/03/28 07:42:42;;;;;;;23.35;11.20;;;;;;;;;;5052351;28;20099;-63
2022/03/28 07:45:10;;;;;;;17.27;10.25;;;;;;;;;;5052380;28;20510;-63
2022/03/28 07:47:36;;;;;;;19.73;10.25;;;;;;;;;;5052589;28;20049;-63
2022/03/28 07:50:04;;;;;;;18.10;10.77;;;;;;;;;;5051418;28;20060;-63
2022/03/28 07:52:31;;;;;;;15.95;9.70;;;;;;;;;;5052235;28;20107;-63
2022/03/28 07:55:00;;;;;;;18.40;10.38;;;;;;;;;;5051458;28;20045;-63
2022/03/28 07:57:27;;;;;;;20.35;10.18;;;;;;;;;;5051317;28;20080;-63
2022/03/28 07:59:54;;;;;;;21.35;10.45;;;;;;;;;;5051295;28;20048;-63
2022/03/28 08:02:40;;;;;;;21.73;10.63;;;;;;;;;;5052643;28;20091;-63
2022/03/28 08:05:08;;;;;;;22.50;10.95;;;;;;;;;;5052299;28;20045;-63
2022/03/28 08:07:35;;;;;;;20.70;10.20;;;;;;;;;;5034758;28;20106;-64
2022/03/28 08:10:04;;;;;;;18.55;11.25;;;;;;;;;;5051149;28;20130;-63
2022/03/28 08:12:31;;;;;;;23.15;11.95;;;;;;;;;;5052035;28;20056;-63
2022/03/28 08:14:58;;;;;;;26.75;12.30;;;;;;;;;;5052022;28;20095;-63
2022/03/28 08:17:25;;;;;;;21.70;11.13;;;;;;;;;;5052100;28;20045;-63
2022/03/28 08:19:51;;;;;;;17.45;10.90;;;;;;;;;;5050489;28;20052;-64
2022/03/28 08:22:18;;;;;;;22.33;11.43;;;;;;;;;;5051487;28;20075;-64
2022/03/28 08:24:45;;;;;;;19.75;11.32;;;;;;;;;;5051916;28;20049;-64
2022/03/28 08:27:11;;;;;;;23.55;11.18;;;;;;;;;;5051992;28;20470;-63
2022/03/28 08:29:38;;;;;;;17.70;10.80;;;;;;;;;;5051817;28;20049;-63
2022/03/28 08:32:05;;;;;;;20.02;11.07;;;;;;;;;;5051684;28;20049;-63
2022/03/28 08:34:36;;;;;;;22.35;12.10;;;;;;;;;;5049751;28;20063;-63
2022/03/28 08:37:03;;;;;;;23.10;12.10;;;;;;;;;;5051683;28;20499;-63
2022/03/28 08:39:30;;;;;;;20.60;11.10;;;;;;;;;;5051740;28;20507;-63
2022/03/28 08:41:57;;;;;;;24.65;11.40;;;;;;;;;;5051651;28;20427;-64
2022/03/28 08:44:26;;;;;;;19.85;11.68;;;;;;;;;;5051532;28;20048;-63
2022/03/28 08:46:55;;;;;;;20.55;11.50;;;;;;;;;;5051694;28;20045;-64
2022/03/28 08:49:21;;;;;;;24.63;11.55;;;;;;;;;;5051743;28;20045;-64
2022/03/28 08:51:49;;;;;;;21.80;11.65;;;;;;;;;;5051435;28;20053;-64
2022/03/28 08:54:16;;;;;;;20.02;11.25;;;;;;;;;;5051546;28;20053;-63
2022/03/28 08:56:42;;;;;;;19.35;10.25;;;;;;;;;;5050375;28;20057;-64
2022/03/28 08:59:09;;;;;;;18.85;10.27;;;;;;;;;;5051630;28;20557;-63
2022/03/28 09:01:37;;;;;;;25.52;12.02;;;;;;;;;;5051293;28;20558;-63
2022/03/28 09:04:08;;;;;;;19.17;11.45;;;;;;;;;;5050031;28;20499;-64
2022/03/28 09:06:37;;;;;;;18.05;10.95;;;;;;;;;;5051348;28;20049;-63
2022/03/28 09:09:24;;;;;;;20.25;11.20;;;;;;;;;;5051349;28;20084;-63
2022/03/28 09:11:56;;;;;;;19.38;11.45;;;;;;;;;;5050978;28;20462;-64
2022/03/28 09:14:30;;;;;;;18.30;11.43;;;;;;;;;;5051440;28;20053;-63
2022/03/28 09:17:00;;;;;;;21.45;11.73;;;;;;;;;;5051446;28;20053;-64
2022/03/28 09:19:41;;;;;;;22.45;13.10;;;;;;;;;;5051319;28;20529;-64
2022/03/28 09:22:19;;;;;;;20.70;11.98;;;;;;;;;;5050112;28;20048;-64
2022/03/28 09:24:47;;;;;;;23.20;11.77;;;;;;;;;;5051050;28;20052;-63
2022/03/28 09:27:20;;;;;;;23.90;12.25;;;;;;;;;;5049867;28;20466;-64
2022/03/28 09:29:56;;;;;;;27.10;12.20;;;;;;;;;;5051325;28;20053;-64
2022/03/28 09:32:25;;;;;;;19.10;11.77;;;;;;;;;;5052922;28;20057;-63
2022/03/28 09:35:20;;;;;;;24.65;14.23;;;;;;;;;;5052939;28;20246;-63
2022/03/28 09:38:04;;;;;;;25.25;12.32;;;;;;;;;;5055022;28;20102;-63
2022/03/28 09:40:35;;;;;;;27.35;12.20;;;;;;;;;;5055052;28;20135;-63
2022/03/28 09:43:23;;;;;;;25.90;13.15;;;;;;;;;;5054627;28;20126;-63
2022/03/28 09:45:55;;;;;;;21.33;12.43;;;;;;;;;;5054949;28;20075;-63
2022/03/28 09:48:24;;;;;;;20.08;11.60;;;;;;;;;;5055113;28;20062;-63
2022/03/28 09:51:03;;;;;;;23.58;13.80;;;;;;;;;;5054632;28;20068;-63
2022/03/28 09:53:36;;;;;;;17.90;11.23;;;;;;;;;;5053266;28;20091;-63
2022/03/28 09:56:04;;;;;;;21.42;11.82;;;;;;;;;;5054664;28;20057;-63
2022/03/28 09:58:46;;;;;;;24.90;12.75;;;;;;;;;;5054706;28;20136;-63
2022/03/28 10:01:12;;;;;;;20.65;12.73;;;;;;;;;;5053445;28;20056;-63
2022/03/28 10:03:39;;;;;;;22.52;13.07;;;;;;;;;;5054355;28;20479;-63
2022/03/28 10:06:07;;;;;;;26.25;13.70;;;;;;;;;;5077498;22;20063;-66
2022/03/28 10:08:35;;;;;;;23.00;14.23;;;;;;;;;;5054654;28;20056;-65
2022/03/28 10:11:02;;;;;;;19.77;12.25;;;;;;;;;;5053061;28;20053;-65
2022/03/28 10:13:30;;;;;;;24.60;12.93;;;;;;;;;;5054212;28;20053;-65
2022/03/28 10:15:58;;;;;;;26.23;13.13;;;;;;;;;;5054738;28;20051;-66
2022/03/28 10:18:29;;;;;;;19.98;12.02;;;;;;;;;;5054080;28;20049;-65
2022/03/28 10:20:56;;;;;;;23.77;13.02;;;;;;;;;;5054314;28;20138;-66
2022/03/28 10:23:26;;;;;;;24.40;13.88;;;;;;;;;;5052935;28;20049;-65
2022/03/28 10:25:53;;;;;;;23.08;13.02;;;;;;;;;;5036858;28;20124;-65
2022/03/28 10:28:21;;;;;;;21.58;13.20;;;;;;;;;;5036361;28;20507;-65
2022/03/28 10:30:47;;;;;;;23.90;13.18;;;;;;;;;;5053952;28;20495;-64
2022/03/28 10:33:19;;;;;;;21.75;13.20;;;;;;;;;;5053944;28;20048;-65
2022/03/28 10:35:59;;;;;;;36.03;19.23;;;;;;;;;;5053672;28;20049;-66
2022/03/28 10:38:26;;;;;;;24.33;13.52;;;;;;;;;;5054061;28;20419;-65
2022/03/28 10:40:57;;;;;;;23.85;12.90;;;;;;;;;;5053847;28;20084;-65
2022/03/28 10:43:26;;;;;;;21.27;11.93;;;;;;;;;;5053240;28;20511;-66
2022/03/28 10:45:54;;;;;;;19.45;12.38;;;;;;;;;;5053771;28;20102;-65
2022/03/28 10:48:39;;;;;;;23.63;12.73;;;;;;;;;;5053672;28;20053;-65
2022/03/28 10:51:16;;;;;;;21.15;12.50;;;;;;;;;;5053652;28;20049;-65
2022/03/28 10:53:51;;;;;;;23.25;13.10;;;;;;;;;;5053500;28;20118;-65
2022/03/28 10:56:31;;;;;;;22.13;12.48;;;;;;;;;;5053574;28;20041;-66
2022/03/28 10:59:01;;;;;;;27.48;14.02;;;;;;;;;;5053235;28;20419;-65
2022/03/28 11:01:28;;;;;;;22.50;12.65;;;;;;;;;;5052383;28;20053;-65
2022/03/28 11:04:00;;;;;;;21.10;13.35;;;;;;;;;;5053358;28;20136;-65
2022/03/28 11:06:49;;;;;;;19.10;11.90;;;;;;;;;;5053077;28;20515;-66
2022/03/28 11:09:51;;;;;;;22.67;12.98;;;;;;;;;;5053197;28;20551;-66
2022/03/28 11:12:34;;;;;;;21.08;11.90;;;;;;;;;;5053072;28;20426;-65
2022/03/28 11:15:05;;;;;;;17.83;11.82;;;;;;;;;;5053427;28;20052;-66
2022/03/28 11:17:37;;;;;;;21.20;12.25;;;;;;;;;;5053394;28;20053;-65
2022/03/28 11:20:15;;;;;;;21.65;12.40;;;;;;;;;;5052205;28;20063;-65
2022/03/28 11:22:41;;;;;;;21.73;11.65;;;;;;;;;;5052727;28;20056;-65
2022/03/28 11:25:27;;;;;;;19.13;12.07;;;;;;;;;;5052489;28;20044;-65
2022/03/28 11:28:15;;;;;;;18.63;11.48;;;;;;;;;;5052373;28;20049;-65
2022/03/28 11:30:45;;;;;;;20.35;14.02;;;;;;;;;;5052465;28;20056;-67
2022/03/28 11:33:20;;;;;;;20.20;12.80;;;;;;;;;;5052601;28;20423;-66
2022/03/28 12:00:35;;;;;;;23.92;13.25;;;;;;;;;;5119751;27;20498;-71
2022/03/28 12:03:03;;;;;;;21.70;12.90;;;;;;;;;;5118429;27;20043;-77
2022/03/28 12:05:35;;;;;;;25.25;13.23;;;;;;;;;;5090819;28;20048;-73
2022/03/28 12:08:08;;;;;;;26.35;12.70;;;;;;;;;;5110663;28;20048;-71
2022/03/28 12:10:37;;;;;;;21.58;12.77;;;;;;;;;;5120766;28;20057;-73
2022/03/28 12:13:06;;;;;;;28.33;14.40;;;;;;;;;;5114105;28;20786;-73
2022/03/28 12:15:44;;;;;;;24.27;13.30;;;;;;;;;;5116908;27;20055;-75
2022/03/28 12:18:15;;;;;;;21.50;13.45;;;;;;;;;;5122438;28;20040;-70
2022/03/28 12:20:52;;;;;;;24.90;13.40;;;;;;;;;;5117243;28;20055;-72
2022/03/28 12:23:21;;;;;;;22.80;13.40;;;;;;;;;;5117126;28;20080;-70
2022/03/28 12:25:52;;;;;;;28.65;14.68;;;;;;;;;;5105094;28;20048;-74
2022/03/28 12:28:33;;;;;;;23.83;13.77;;;;;;;;;;5113432;28;20499;-71
2022/03/28 12:31:02;;;;;;;22.38;13.68;;;;;;;;;;5116704;28;20058;-72
2022/03/28 12:33:38;;;;;;;22.30;13.95;;;;;;;;;;5115102;27;20060;-74
2022/03/28 12:36:10;;;;;;;29.38;14.95;;;;;;;;;;5097937;28;20086;-72
2022/03/28 12:38:40;;;;;;;25.13;14.00;;;;;;;;;;5118679;28;20056;-69
2022/03/28 12:41:16;;;;;;;21.48;13.65;;;;;;;;;;5114901;27;20824;-76
2022/03/28 12:43:47;;;;;;;21.88;13.07;;;;;;;;;;5111730;28;20472;-71
2022/03/28 12:46:16;;;;;;;20.20;12.73;;;;;;;;;;5107195;28;20085;-72
2022/03/28 12:48:51;;;;;;;18.83;12.82;;;;;;;;;;5112783;28;20059;-76
2022/03/28 12:51:28;;;;;;;19.52;11.50;;;;;;;;;;5117985;28;20040;-72
2022/03/28 12:54:14;;;;;;;17.60;11.35;;;;;;;;;;5106490;28;20044;-74
2022/03/28 12:56:58;;;;;;;18.17;12.52;;;;;;;;;;5104753;28;20043;-66
2022/03/28 12:59:27;;;;;;;21.17;12.63;;;;;;;;;;5117191;28;20073;-66
2022/03/28 13:02:17;;;;;;;17.15;11.30;;;;;;;;;;5114318;27;20055;-66
2022/03/28 13:05:17;;;;;;;19.17;12.65;;;;;;;;;;5116010;28;20044;-66
2022/03/28 13:07:43;;;;;;;17.98;12.05;;;;;;;;;;5107271;28;20089;-66
2022/03/28 13:10:14;;;;;;;15.77;10.35;;;;;;;;;;5104271;28;20044;-66
2022/03/28 13:12:42;;;;;;;15.55;10.20;;;;;;;;;;5098882;27;20052;-66
2022/03/28 13:15:15;;;;;;;18.80;11.07;;;;;;;;;;5099996;28;20044;-64
2022/03/28 13:17:44;;;;;;;15.18;11.23;;;;;;;;;;5100266;28;20051;-64
2022/03/28 13:20:21;;;;;;;17.52;10.40;;;;;;;;;;5098841;27;20154;-67
2022/03/28 13:22:50;;;;;;;18.38;10.20;;;;;;;;;;5100366;28;20096;-72
2022/03/28 13:25:20;;;;;;;14.38;10.18;;;;;;;;;;5095849;28;20078;-71
2022/03/28 13:28:06;;;;;;;14.68;10.85;;;;;;;;;;5102093;28;20519;-72
2022/03/28 13:30:39;;;;;;;15.43;9.25;;;;;;;;;;5096605;28;20527;-69
2022/03/28 13:33:06;;;;;;;14.52;8.95;;;;;;;;;;5096581;28;20051;-71
2022/03/28 13:35:33;;;;;;;14.00;10.18;;;;;;;;;;5098052;28;20081;-65
2022/03/28 13:38:02;;;;;;;16.20;10.27;;;;;;;;;;5102664;28;20047;-72
2022/03/28 13:40:30;;;;;;;12.75;9.18;;;;;;;;;;5095920;28;20058;-70
2022/03/28 13:42:57;;;;;;;18.73;10.40;;;;;;;;;;5096620;28;20121;-71
2022/03/28 13:45:24;;;;;;;13.32;9.57;;;;;;;;;;5096748;28;20503;-71
2022/03/28 13:47:51;;;;;;;14.40;9.70;;;;;;;;;;5099019;28;20043;-72
2022/03/28 13:50:18;;;;;;;14.73;9.73;;;;;;;;;;5103452;28;20047;-72
2022/03/28 13:53:06;;;;;;;12.50;8.55;;;;;;;;;;5099209;28;20040;-72
2022/03/28 13:55:34;;;;;;;11.73;8.75;;;;;;;;;;5096494;28;20397;-72
2022/03/28 13:58:00;;;;;;;13.20;9.00;;;;;;;;;;5099375;28;20047;-73
2022/03/28 14:00:27;;;;;;;13.98;8.18;;;;;;;;;;5096922;28;20526;-65
2022/03/28 14:03:06;;;;;;;14.30;8.27;;;;;;;;;;5095710;28;20121;-66
2022/03/28 14:05:33;;;;;;;14.02;8.93;;;;;;;;;;5095990;28;20056;-72
2022/03/28 14:08:00;;;;;;;16.73;8.43;;;;;;;;;;5098878;28;20043;-66
2022/03/28 14:10:27;;;;;;;12.30;8.27;;;;;;;;;;5097847;28;20134;-66
2022/03/28 14:12:54;;;;;;;13.45;9.00;;;;;;;;;;5095842;28;20250;-67
2022/03/28 14:15:21;;;;;;;11.77;8.23;;;;;;;;;;5099126;28;20051;-67
2022/03/28 14:17:48;;;;;;;13.65;9.43;;;;;;;;;;5096339;28;20056;-68
2022/03/28 14:20:17;;;;;;;11.93;8.63;;;;;;;;;;5097163;28;20069;-68
2022/03/28 14:22:44;;;;;;;13.38;8.85;;;;;;;;;;5096252;28;20043;-74
2022/03/28 14:25:11;;;;;;;14.48;9.18;;;;;;;;;;5095425;28;20135;-73
2022/03/28 14:27:37;;;;;;;12.38;8.70;;;;;;;;;;5096794;28;20055;-74
2022/03/28 14:30:05;;;;;;;15.75;8.55;;;;;;;;;;5097878;28;20052;-74
2022/03/28 14:32:31;;;;;;;12.48;9.00;;;;;;;;;;5096141;28;20101;-74
2022/03/28 14:35:04;;;;;;;;;;;;;;;;;;5098803;28;20139;-71
2022/03/28 14:37:31;;;;;;;12.18;9.07;;;;;;;;;;5097708;28;20074;-70
2022/03/28 14:39:57;;;;;;;11.98;7.78;;;;;;;;;;5100778;28;20060;-74
2022/03/28 14:42:25;;;;;;;10.68;8.10;;;;;;;;;;5097471;28;20051;-75
2022/03/28 14:44:53;;;;;;;13.57;8.80;;;;;;;;;;5094118;28;20055;-75
2022/03/28 14:47:20;;;;;;;11.45;8.27;;;;;;;;;;5096837;28;20503;-75
2022/03/28 14:49:46;;;;;;;13.40;8.55;;;;;;;;;;5097304;28;20052;-76
2022/03/28 14:52:18;;;;;;;10.43;8.45;;;;;;;;;;5095790;28;20460;-77
2022/03/28 14:54:48;;;;;;;12.40;8.97;;;;;;;;;;5098692;28;20717;-76
2022/03/28 14:57:15;;;;;;;12.57;8.85;;;;;;;;;;5100356;28;20057;-70
2022/03/28 14:59:42;;;;;;;12.20;8.57;;;;;;;;;;5097883;28;20051;-67
2022/03/28 15:02:09;;;;;;;10.63;8.35;;;;;;;;;;5094905;28;20048;-68
2022/03/28 15:04:37;;;;;;;10.27;7.80;;;;;;;;;;5105163;28;20056;-67